Time;durP1;ratioP1;P1;durP2;ratioP2;P2;SDS_P1;SDS_P2;PMS_P1;PMS_P2;Temp;Humidity;BMP_temperature;BMP_pressure;BME280_temperature;BME280_humidity;BME280_pressure;Samples;Min_cycle;Max_cycle;Signal;HPM_P1;HPM_P2
2021/04/21 00:00:23;;;;;;;16.13;11.52;;;;;;;9.77;73.31;100331.66;5114413;28;20110;-83
2021/04/21 00:02:53;;;;;;;16.77;12.57;;;;;;;9.75;73.84;100333.53;5119846;28;20048;-82
2021/04/21 00:05:21;;;;;;;17.25;11.93;;;;;;;9.71;73.68;100323.16;5114804;28;20046;-82
2021/04/21 00:07:49;;;;;;;16.92;12.32;;;;;;;9.70;73.96;100324.94;5116381;28;20032;-83
2021/04/21 00:10:18;;;;;;;15.27;12.50;;;;;;;9.69;74.44;100327.66;5112750;28;20039;-83
2021/04/21 00:12:46;;;;;;;18.87;13.03;;;;;;;9.58;74.01;100306.13;5098982;28;20071;-83
2021/04/21 00:15:19;;;;;;;17.33;12.73;;;;;;;9.65;73.89;100320.78;5091693;28;20054;-83
2021/04/21 00:17:48;;;;;;;17.23;12.50;;;;;;;9.58;74.47;100321.97;5112496;27;20048;-83
2021/04/21 00:20:18;;;;;;;17.13;13.15;;;;;;;9.53;74.29;100323.97;5111945;28;20071;-83
2021/04/21 00:22:51;;;;;;;19.08;12.45;;;;;;;9.47;75.05;100307.44;5112867;28;20059;-83
2021/04/21 00:25:17;;;;;;;16.23;12.25;;;;;;;9.45;75.14;100306.63;5122463;28;20050;-83
2021/04/21 00:27:45;;;;;;;17.98;12.15;;;;;;;9.38;75.23;100296.41;5113832;28;20048;-83
2021/04/21 00:30:14;;;;;;;16.70;12.57;;;;;;;9.51;75.42;100318.75;5106940;28;20074;-83
2021/04/21 00:32:51;;;;;;;17.27;12.30;;;;;;;9.49;75.58;100315.28;5098305;28;20082;-83
2021/04/21 00:35:23;;;;;;;;;;;;;;;9.46;75.29;100313.63;5096783;28;20043;-82
2021/04/21 00:37:55;;;;;;;17.52;12.70;;;;;;;9.39;74.93;100314.84;5102607;28;19983;-82
2021/04/21 00:40:36;;;;;;;17.10;12.20;;;;;;;9.36;75.50;100314.97;5095105;28;20102;-82
2021/04/21 00:43:10;;;;;;;19.35;12.45;;;;;;;9.35;75.65;100318.53;5097062;28;20139;-82
2021/04/21 00:45:41;;;;;;;17.27;12.32;;;;;;;9.27;75.26;100304.81;5092958;28;20537;-83
2021/04/21 00:48:20;;;;;;;17.75;12.32;;;;;;;9.27;75.84;100317.16;5096913;28;20055;-83
2021/04/21 00:50:55;;;;;;;18.20;12.85;;;;;;;9.20;75.49;100308.63;5074071;28;20116;-84
2021/04/21 00:53:43;;;;;;;16.13;12.57;;;;;;;9.12;75.70;100313.41;5114048;28;20035;-81
2021/04/21 00:56:35;;;;;;;18.83;12.88;;;;;;;9.07;75.79;100310.94;5115012;28;20047;-83
2021/04/21 00:59:17;;;;;;;;;;;;;;;9.03;76.06;100313.75;5115208;28;20446;-83
2021/04/21 01:01:45;;;;;;;17.08;12.38;;;;;;;8.98;76.30;100310.44;5101032;28;19954;-82
2021/04/21 01:04:14;;;;;;;16.90;12.40;;;;;;;8.98;76.48;100307.81;5093981;28;20056;-82
2021/04/21 01:06:43;;;;;;;17.73;13.45;;;;;;;8.97;76.44;100309.59;5094780;28;20097;-83
2021/04/21 01:09:18;;;;;;;17.27;13.05;;;;;;;8.96;76.46;100310.53;5092414;28;20040;-83
2021/04/21 01:11:57;;;;;;;17.05;12.18;;;;;;;8.98;76.38;100323.66;5082281;28;20079;-82
2021/04/21 01:14:28;;;;;;;16.90;12.95;;;;;;;8.92;76.33;100321.28;5088513;28;20055;-82
2021/04/21 01:16:59;;;;;;;17.30;13.27;;;;;;;8.89;76.27;100314.34;5092757;28;20052;-81
2021/04/21 01:20:04;;;;;;;;;;;;;;;8.88;76.84;100314.41;5077830;28;20079;-82
2021/04/21 01:22:43;;;;;;;20.50;13.75;;;;;;;8.79;77.13;100318.28;5087443;28;19924;-82
2021/04/21 01:25:15;;;;;;;20.45;13.98;;;;;;;8.76;77.48;100314.00;5073793;28;20048;-83
2021/04/21 01:27:51;;;;;;;20.63;13.93;;;;;;;8.76;77.87;100315.78;5074885;28;20142;-82
2021/04/21 01:30:23;;;;;;;20.15;14.05;;;;;;;8.75;77.78;100314.91;5099662;28;20052;-83
2021/04/21 01:32:54;;;;;;;19.75;13.98;;;;;;;8.76;77.86;100319.28;5097821;28;20138;-82
2021/04/21 01:35:22;;;;;;;19.15;14.63;;;;;;;8.71;77.71;100312.44;5076684;28;20067;-82
2021/04/21 01:37:51;;;;;;;20.17;15.07;;;;;;;8.75;77.81;100319.34;5079324;28;20104;-78
2021/04/21 01:40:34;;;;;;;21.92;14.82;;;;;;;8.78;77.86;100322.72;5103805;28;20053;-79
2021/04/21 01:43:07;;;;;;;20.65;15.50;;;;;;;8.75;77.78;100322.84;5099861;28;20070;-79
2021/04/21 01:45:37;;;;;;;19.08;14.90;;;;;;;8.73;78.11;100323.81;5085643;27;20119;-83
2021/04/21 01:48:18;;;;;;;22.50;15.05;;;;;;;8.66;78.09;100314.41;5116161;28;20036;-83
2021/04/21 01:50:46;;;;;;;21.08;15.13;;;;;;;8.65;78.46;100318.84;5116194;28;20107;-82
2021/04/21 01:53:41;;;;;;;19.85;15.10;;;;;;;8.60;78.37;100320.81;5103418;28;20070;-82
2021/04/21 01:56:11;;;;;;;21.17;15.32;;;;;;;8.49;78.70;100325.66;5096952;28;20052;-82
2021/04/21 01:59:02;;;;;;;21.88;14.85;;;;;;;8.38;78.94;100322.56;5092297;28;20093;-81
2021/04/21 02:01:40;;;;;;;18.83;14.82;;;;;;;8.30;79.74;100330.75;5106275;28;20059;-82
2021/04/21 02:04:24;;;;;;;22.52;16.45;;;;;;;8.29;79.90;100325.53;5100505;28;20072;-83
2021/04/21 02:07:35;;;;;;;22.38;15.48;;;;;;;8.30;79.89;100327.28;5103503;28;20103;-83
2021/04/21 02:10:09;;;;;;;22.25;15.60;;;;;;;8.32;79.83;100328.09;5076071;28;20074;-82
2021/04/21 02:12:37;;;;;;;22.45;16.98;;;;;;;8.33;79.98;100329.81;5112464;28;20070;-82
2021/04/21 02:15:11;;;;;;;20.73;14.95;;;;;;;8.28;80.08;100326.47;5112581;28;20059;-82
2021/04/21 02:17:47;;;;;;;21.63;15.55;;;;;;;8.24;79.93;100327.50;5117927;28;20107;-81
2021/04/21 02:20:38;;;;;;;22.02;16.65;;;;;;;8.23;80.18;100328.41;5086821;28;20067;-82
2021/04/21 02:23:08;;;;;;;21.42;15.82;;;;;;;8.24;80.29;100330.13;5110718;28;20043;-81
2021/04/21 02:25:47;;;;;;;;;;;;;;;8.24;80.21;100335.41;5109073;28;20063;-82
2021/04/21 02:28:43;;;;;;;21.58;16.05;;;;;;;8.22;80.00;100337.25;5102091;28;19924;-81
2021/04/21 02:31:15;;;;;;;20.63;15.75;;;;;;;8.18;79.73;100333.03;5111837;28;20051;-81
2021/04/21 02:33:59;;;;;;;24.55;16.27;;;;;;;8.13;80.10;100333.19;5107258;28;20040;-81
2021/04/21 02:36:37;;;;;;;18.33;15.20;;;;;;;8.08;80.27;100336.00;5098703;28;20501;-81
2021/04/21 02:39:35;;;;;;;21.38;15.55;;;;;;;8.06;80.83;100331.69;5098421;28;20136;-81
2021/04/21 02:42:14;;;;;;;23.58;16.48;;;;;;;8.06;80.98;100332.53;5099434;28;20135;-79
2021/04/21 02:44:49;;;;;;;21.08;15.52;;;;;;;7.93;80.37;100315.47;5092449;28;20043;-82
2021/04/21 02:47:22;;;;;;;22.15;15.80;;;;;;;8.03;80.91;100337.06;5087595;28;20059;-83
2021/04/21 02:50:06;;;;;;;22.90;16.65;;;;;;;8.00;80.87;100338.06;5083792;28;20423;-83
2021/04/21 02:53:09;;;;;;;22.15;15.35;;;;;;;7.96;80.79;100331.19;5092764;28;20233;-82
2021/04/21 02:55:46;;;;;;;23.60;16.83;;;;;;;7.92;80.66;100328.69;5074310;28;20070;-82
2021/04/21 02:58:36;;;;;;;23.05;16.55;;;;;;;7.87;80.97;100334.13;5089041;28;20088;-82
2021/04/21 03:01:12;;;;;;;21.60;16.27;;;;;;;7.77;81.52;100331.91;5091910;28;20060;-82
2021/04/21 03:03:59;;;;;;;24.65;16.23;;;;;;;7.74;81.75;100330.22;5082653;28;20071;-82
2021/04/21 03:06:34;;;;;;;25.70;16.67;;;;;;;7.72;81.86;100335.56;5085994;28;20054;-81
2021/04/21 03:09:12;;;;;;;23.13;16.00;;;;;;;7.72;81.69;100338.19;5091815;28;20044;-81
2021/04/21 03:11:41;;;;;;;29.98;17.30;;;;;;;7.73;82.14;100334.66;5085576;28;20048;-82
2021/04/21 03:14:28;;;;;;;24.75;17.52;;;;;;;7.73;81.98;100333.78;5083718;28;20128;-82
2021/04/21 03:17:05;;;;;;;25.92;16.98;;;;;;;7.70;81.89;100332.16;5071740;28;20056;-82
2021/04/21 03:19:41;;;;;;;23.65;17.00;;;;;;;7.67;82.28;100328.75;5099932;28;20072;-82
2021/04/21 03:22:14;;;;;;;25.33;17.10;;;;;;;7.66;81.88;100327.03;5073214;28;20126;-82
2021/04/21 03:25:25;;;;;;;23.45;17.33;;;;;;;7.65;82.19;100330.59;5093924;28;20071;-83
2021/04/21 03:27:57;;;;;;;24.02;16.50;;;;;;;7.66;82.27;100324.41;5007286;28;20038;-83
2021/04/21 03:30:29;;;;;;;27.63;17.48;;;;;;;7.54;82.19;100315.16;5011132;28;20129;-82
2021/04/21 03:33:16;;;;;;;22.77;17.15;;;;;;;7.60;82.40;100317.56;5062023;28;20040;-83
2021/04/21 03:35:51;;;;;;;24.30;17.08;;;;;;;7.54;82.66;100323.06;5094888;28;20107;-82
2021/04/21 03:38:20;;;;;;;24.42;17.10;;;;;;;7.46;82.43;100316.34;5074740;28;20083;-82
2021/04/21 03:40:48;;;;;;;26.95;16.83;;;;;;;7.44;82.98;100326.94;5080080;28;20115;-83
2021/04/21 03:43:15;;;;;;;24.60;17.27;;;;;;;7.44;83.33;100320.78;5112830;28;20051;-82
2021/04/21 03:45:47;;;;;;;24.15;16.83;;;;;;;7.39;83.38;100313.94;5097233;28;20054;-83
2021/04/21 03:48:15;;;;;;;24.05;17.35;;;;;;;7.46;83.35;100325.09;5110174;28;20058;-82
2021/04/21 03:50:43;;;;;;;21.98;16.15;;;;;;;7.43;82.83;100319.94;5109334;28;20044;-82
2021/04/21 03:53:14;;;;;;;22.52;16.75;;;;;;;7.48;82.66;100328.53;5111863;28;20071;-83
2021/04/21 03:55:40;;;;;;;24.65;16.65;;;;;;;7.49;82.18;100329.41;5112978;28;20075;-83
2021/04/21 03:58:11;;;;;;;25.35;17.33;;;;;;;7.46;82.26;100326.88;5104362;28;20596;-83
2021/04/21 04:00:39;;;;;;;22.92;16.77;;;;;;;7.50;82.20;100329.34;5119623;28;20063;-83
2021/04/21 04:03:14;;;;;;;21.15;16.20;;;;;;;7.48;81.25;100330.31;5111285;28;20047;-82
2021/04/21 04:05:43;;;;;;;23.48;17.13;;;;;;;7.29;81.66;100328.31;5104256;28;20036;-83
2021/04/21 04:08:13;;;;;;;22.98;17.20;;;;;;;7.14;82.56;100333.25;5107830;28;20123;-82
2021/04/21 04:10:48;;;;;;;24.80;17.88;;;;;;;7.01;83.00;100338.06;5115243;28;20034;-82
2021/04/21 04:13:15;;;;;;;26.25;18.70;;;;;;;6.89;84.11;100333.22;5103995;28;20044;-82
2021/04/21 04:15:42;;;;;;;24.67;18.25;;;;;;;6.83;84.75;100330.78;5097653;28;20113;-83
2021/04/21 04:18:12;;;;;;;25.55;18.40;;;;;;;6.82;85.21;100332.56;5094727;28;20103;-82
2021/04/21 04:20:40;;;;;;;27.30;19.03;;;;;;;6.77;85.39;100329.19;5095590;28;20043;-83
2021/04/21 04:23:09;;;;;;;28.83;18.80;;;;;;;6.88;85.77;100339.41;5107699;28;20067;-82
2021/04/21 04:25:47;;;;;;;26.13;19.35;;;;;;;6.94;85.77;100333.91;5081872;28;20074;-81
2021/04/21 04:28:13;;;;;;;26.38;17.73;;;;;;;7.04;85.11;100336.22;5074660;28;20127;-81
2021/04/21 04:30:41;;;;;;;23.70;17.17;;;;;;;7.04;84.63;100340.63;5097051;28;20073;-81
2021/04/21 04:33:09;;;;;;;22.90;16.67;;;;;;;7.05;84.62;100331.81;5095463;28;20074;-81
2021/04/21 04:35:36;;;;;;;24.75;18.08;;;;;;;7.06;83.74;100341.44;5106161;28;20052;-82
2021/04/21 04:38:04;;;;;;;26.58;18.55;;;;;;;7.06;84.46;100341.44;5093105;28;20036;-82
2021/04/21 04:40:31;;;;;;;26.45;18.27;;;;;;;7.07;83.91;100347.56;5113080;28;20058;-82
2021/04/21 04:42:59;;;;;;;27.85;19.25;;;;;;;7.01;83.61;100349.47;5110671;28;20090;-81
2021/04/21 04:45:30;;;;;;;27.55;18.95;;;;;;;6.89;83.64;100356.91;5107252;28;20105;-81
2021/04/21 04:48:07;;;;;;;28.63;18.95;;;;;;;6.77;84.22;100358.16;5101978;28;20131;-82
2021/04/21 04:50:37;;;;;;;26.65;18.60;;;;;;;6.71;85.32;100355.72;5073202;28;20079;-81
2021/04/21 04:53:07;;;;;;;25.67;19.00;;;;;;;6.68;85.31;100358.44;5098558;28;20044;-82
2021/04/21 04:55:35;;;;;;;26.38;18.92;;;;;;;6.67;85.54;100360.22;5085486;28;20432;-81
2021/04/21 04:58:04;;;;;;;26.25;19.00;;;;;;;6.76;86.24;100364.34;5101850;28;20100;-81
2021/04/21 05:00:32;;;;;;;27.63;18.35;;;;;;;6.94;86.24;100371.63;5099923;28;20463;-83
2021/04/21 05:03:14;;;;;;;28.48;19.35;;;;;;;7.09;85.35;100367.63;5093139;28;20048;-83
2021/04/21 05:05:45;;;;;;;24.75;17.88;;;;;;;7.18;85.02;100361.22;5094860;28;20070;-83
2021/04/21 05:08:18;;;;;;;27.55;19.40;;;;;;;7.31;84.22;100366.00;5093371;28;20472;-82
2021/04/21 05:11:05;;;;;;;26.60;18.80;;;;;;;7.48;83.16;100361.94;5095240;28;20085;-82
2021/04/21 05:13:44;;;;;;;26.95;19.35;;;;;;;7.62;82.74;100376.34;5090284;28;20070;-83
2021/04/21 05:16:11;;;;;;;26.60;18.52;;;;;;;7.74;82.61;100373.28;5074667;28;20155;-82
2021/04/21 05:19:06;;;;;;;26.90;18.20;;;;;;;7.84;81.73;100372.97;5076145;28;20094;-83
2021/04/21 05:21:58;;;;;;;29.02;18.77;;;;;;;7.93;81.24;100384.03;5095436;28;20040;-83
2021/04/21 05:24:41;;;;;;;29.20;18.42;;;;;;;8.00;81.13;100380.25;5093974;28;20128;-82
2021/04/21 05:27:11;;;;;;;29.48;19.35;;;;;;;8.07;80.77;100378.25;5095152;28;20140;-83
2021/04/21 05:29:40;;;;;;;28.02;19.88;;;;;;;8.19;80.82;100382.19;5096041;28;20040;-83
2021/04/21 05:32:46;;;;;;;26.13;18.38;;;;;;;8.29;79.92;100375.66;5094205;28;20138;-83
2021/04/21 05:35:59;;;;;;;30.42;19.45;;;;;;;8.43;79.80;100383.94;5096038;28;20111;-84
2021/04/21 05:38:59;;;;;;;26.60;18.45;;;;;;;8.58;79.08;100379.84;5092957;28;20052;-82
2021/04/21 05:41:43;;;;;;;26.60;19.35;;;;;;;8.69;78.88;100381.16;5102923;28;20064;-82
2021/04/21 05:44:54;;;;;;;25.48;18.98;;;;;;;8.79;78.60;100390.44;5103092;28;20052;-81
2021/04/21 05:47:58;;;;;;;27.75;17.92;;;;;;;8.92;77.89;100384.66;5110719;28;20045;-82
2021/04/21 05:50:51;;;;;;;29.67;18.52;;;;;;;9.03;77.21;100385.09;5096860;28;20085;-82
2021/04/21 05:53:44;;;;;;;28.70;18.52;;;;;;;9.14;76.53;100393.41;5093723;28;20051;-82
2021/04/21 05:56:48;;;;;;;24.98;17.67;;;;;;;9.23;76.67;100395.69;5089011;28;20112;-83
2021/04/21 05:59:54;;;;;;;27.50;18.05;;;;;;;9.31;76.17;100392.72;5095444;28;20094;-84
2021/04/21 06:02:28;;;;;;;24.48;17.80;;;;;;;9.38;75.34;100380.97;5088724;28;20107;-83
2021/04/21 06:05:13;;;;;;;25.83;17.88;;;;;;;9.46;74.69;100382.38;5095765;28;20051;-83
2021/04/21 06:07:44;;;;;;;24.63;17.27;;;;;;;9.56;74.56;100379.34;5103851;28;20130;-83
2021/04/21 06:10:27;;;;;;;24.58;17.75;;;;;;;9.68;74.15;100384.09;5092101;28;20048;-84
2021/04/21 06:13:01;;;;;;;25.38;18.38;;;;;;;9.79;73.76;100389.78;5105950;28;20544;-83
2021/04/21 06:15:38;;;;;;;30.17;19.02;;;;;;;9.93;72.94;100389.16;5078786;28;20048;-84
2021/04/21 06:18:06;;;;;;;24.83;17.83;;;;;;;9.96;73.32;100366.06;5103371;27;20028;-85
2021/04/21 06:20:41;;;;;;;25.85;17.35;;;;;;;10.30;72.24;100398.97;5109675;28;21154;-82
2021/04/21 06:23:12;;;;;;;23.75;17.13;;;;;;;10.49;71.22;100398.06;5103433;28;20083;-84
2021/04/21 06:25:41;;;;;;;25.23;18.17;;;;;;;10.87;70.71;100401.53;5093193;28;20047;-83
2021/04/21 06:28:23;;;;;;;25.17;17.35;;;;;;;11.94;67.61;100399.72;5097585;28;20651;-82
2021/04/21 06:31:02;;;;;;;20.23;15.70;;;;;;;13.51;63.36;100393.59;5102632;28;20039;-84
2021/04/21 06:33:33;;;;;;;20.33;15.65;;;;;;;15.23;57.45;100393.44;5111343;28;20096;-84
2021/04/21 06:36:00;;;;;;;20.67;15.13;;;;;;;16.65;52.32;100389.00;5100117;28;20048;-83
2021/04/21 06:38:32;;;;;;;19.58;14.77;;;;;;;17.79;48.68;100380.41;5088887;28;20044;-82
2021/04/21 06:41:24;;;;;;;20.77;14.63;;;;;;;19.13;44.69;100393.84;5078984;28;20127;-83
2021/04/21 06:43:50;;;;;;;20.15;14.32;;;;;;;19.95;42.55;100395.81;5088695;28;20155;-82
2021/04/21 06:46:21;;;;;;;22.05;14.18;;;;;;;20.65;39.65;100392.34;5094693;28;20454;-82
2021/04/21 06:48:52;;;;;;;18.27;13.65;;;;;;;21.14;38.35;100384.38;5096360;28;20134;-83
2021/04/21 06:51:21;;;;;;;15.10;13.48;;;;;;;21.63;36.78;100388.84;5100244;28;20066;-83
2021/04/21 06:53:51;;;;;;;19.02;13.98;;;;;;;22.08;36.38;100390.91;5100142;28;20048;-83
2021/04/21 06:56:29;;;;;;;14.85;13.02;;;;;;;22.47;34.85;100391.66;5099750;28;20048;-83
2021/04/21 06:58:59;;;;;;;16.63;13.57;;;;;;;22.77;34.53;100394.09;5078161;28;20062;-84
2021/04/21 07:01:29;;;;;;;15.38;13.10;;;;;;;22.91;34.10;100400.84;5103170;28;20581;-82
2021/04/21 07:04:16;;;;;;;14.32;12.65;;;;;;;23.00;32.61;100389.97;5102131;28;20048;-83
2021/04/21 07:06:49;;;;;;;14.30;12.80;;;;;;;23.35;33.42;100399.97;5096303;28;20041;-83
2021/04/21 07:09:21;;;;;;;19.95;14.20;;;;;;;23.39;32.97;100404.06;5102234;28;20043;-84
2021/04/21 07:12:01;;;;;;;15.02;12.35;;;;;;;23.49;32.41;100403.13;5108443;28;20074;-84
2021/04/21 07:14:31;;;;;;;15.23;12.48;;;;;;;23.51;32.41;100401.13;5107369;28;20072;-84
2021/04/21 07:16:59;;;;;;;15.05;12.82;;;;;;;23.57;32.96;100408.66;5100518;28;20062;-83
2021/04/21 07:19:27;;;;;;;15.70;13.52;;;;;;;23.73;32.10;100388.03;5114418;28;20080;-82
2021/04/21 07:21:54;;;;;;;14.52;12.85;;;;;;;23.99;31.74;100393.44;5092638;28;20043;-83
2021/04/21 07:24:30;;;;;;;14.57;13.07;;;;;;;24.05;32.05;100400.09;5111635;28;20093;-83
2021/04/21 07:26:58;;;;;;;14.57;12.73;;;;;;;24.05;31.85;100398.22;5101661;28;20068;-83
2021/04/21 07:29:27;;;;;;;14.68;12.98;;;;;;;24.15;31.56;100398.13;5093103;28;20048;-83
2021/04/21 07:31:54;;;;;;;15.27;13.23;;;;;;;24.32;31.15;100399.09;5093660;28;20057;-84
2021/04/21 07:34:33;;;;;;;18.90;13.07;;;;;;;24.50;31.42;100407.16;5097916;28;20111;-83
2021/04/21 07:37:00;;;;;;;15.88;13.57;;;;;;;24.71;30.85;100402.19;5095278;28;20510;-83
2021/04/21 07:39:36;;;;;;;16.65;13.57;;;;;;;24.71;30.80;100404.91;5077085;28;20070;-83
2021/04/21 07:42:03;;;;;;;18.40;13.95;;;;;;;24.72;30.62;100402.00;5074919;28;20502;-82
2021/04/21 07:44:53;;;;;;;19.15;14.23;;;;;;;24.76;30.91;100403.38;5095577;28;20036;-84
2021/04/21 07:47:23;;;;;;;16.55;13.68;;;;;;;24.99;30.74;100408.25;5077294;28;20048;-82
2021/04/21 07:50:03;;;;;;;17.45;13.35;;;;;;;25.10;30.48;100399.81;5099394;28;20055;-83
2021/04/21 07:52:34;;;;;;;17.35;14.52;;;;;;;25.06;30.00;100403.84;5084595;28;20048;-84
2021/04/21 07:55:17;;;;;;;18.42;15.27;;;;;;;24.85;30.18;100406.13;5116016;28;20044;-88
2021/04/21 07:58:08;;;;;;;17.45;14.40;;;;;;;24.56;30.58;100410.03;5103081;28;20089;-84
2021/04/21 08:00:37;;;;;;;19.35;13.57;;;;;;;24.47;31.64;100411.88;5109132;28;20058;-85
2021/04/21 08:03:04;;;;;;;21.50;15.05;;;;;;;23.94;31.30;100414.69;5112576;28;20055;-84
2021/04/21 08:05:31;;;;;;;18.77;14.40;;;;;;;23.66;32.53;100403.16;5114531;28;20043;-83
2021/04/21 08:08:01;;;;;;;16.65;14.80;;;;;;;23.83;31.94;100412.25;5100569;28;20059;-83
2021/04/21 08:10:37;;;;;;;17.60;14.65;;;;;;;23.97;31.70;100419.81;5094648;28;20470;-83
2021/04/21 08:13:04;;;;;;;16.15;13.25;;;;;;;24.02;32.13;100420.19;5097625;28;20090;-82
2021/04/21 08:15:36;;;;;;;14.88;13.27;;;;;;;23.90;32.09;100413.34;5105476;28;20044;-83
2021/04/21 08:18:07;;;;;;;15.60;13.73;;;;;;;23.99;32.19;100408.81;5095517;28;20047;-83
2021/04/21 08:20:52;;;;;;;14.93;12.55;;;;;;;24.02;32.32;100405.81;5099575;28;20071;-83
2021/04/21 08:23:31;;;;;;;15.52;13.27;;;;;;;24.06;32.02;100412.63;5109301;28;20040;-83
2021/04/21 08:26:00;;;;;;;15.05;13.45;;;;;;;23.71;31.39;100421.63;5081726;28;20091;-83
2021/04/21 08:28:26;;;;;;;15.73;12.55;;;;;;;23.17;32.90;100419.84;5092555;28;20100;-83
2021/04/21 08:31:02;;;;;;;16.92;12.15;;;;;;;22.31;34.72;100416.56;5109973;28;20112;-83
2021/04/21 08:33:32;;;;;;;12.95;10.48;;;;;;;21.39;35.88;100415.38;5112125;28;20056;-83
2021/04/21 08:36:02;;;;;;;15.10;11.88;;;;;;;20.49;38.08;100415.34;5108838;28;20062;-83
2021/04/21 08:38:29;;;;;;;14.13;11.73;;;;;;;19.61;38.90;100413.09;5113409;28;20024;-83
2021/04/21 08:40:57;;;;;;;13.77;11.10;;;;;;;19.04;40.72;100424.13;5081733;28;20047;-83
2021/04/21 08:43:24;;;;;;;14.07;11.40;;;;;;;18.42;41.83;100422.78;5093980;28;20070;-84
2021/04/21 08:45:53;;;;;;;16.38;12.35;;;;;;;17.86;43.26;100420.03;5105206;28;20056;-83
2021/04/21 08:48:23;;;;;;;15.77;11.93;;;;;;;17.51;44.56;100422.66;5102812;28;20067;-83
2021/04/21 08:50:50;;;;;;;15.63;11.38;;;;;;;17.30;45.31;100418.09;5107704;28;20059;-84
2021/04/21 08:53:18;;;;;;;14.80;11.82;;;;;;;17.26;45.80;100420.13;5083235;28;20475;-83
2021/04/21 08:55:49;;;;;;;17.55;11.48;;;;;;;17.15;45.52;100420.94;5100478;28;20043;-82
2021/04/21 08:58:15;;;;;;;15.75;11.85;;;;;;;16.81;45.88;100411.84;5089542;28;20106;-82
2021/04/21 09:00:45;;;;;;;19.25;12.23;;;;;;;16.49;46.38;100419.47;5107458;28;20059;-83
2021/04/21 09:03:15;;;;;;;16.35;11.70;;;;;;;16.36;48.05;100423.13;5097534;28;20048;-83
2021/04/21 09:05:42;;;;;;;14.75;11.70;;;;;;;16.27;47.88;100419.25;5099781;28;20040;-81
2021/04/21 09:08:10;;;;;;;16.13;12.05;;;;;;;16.22;47.90;100420.53;5078925;28;20480;-83
2021/04/21 09:10:42;;;;;;;15.40;11.65;;;;;;;16.19;48.34;100423.44;5102550;28;20135;-81
2021/04/21 09:13:11;;;;;;;14.70;10.95;;;;;;;16.18;48.53;100429.75;5101364;28;20044;-84
2021/04/21 09:15:39;;;;;;;18.48;12.45;;;;;;;16.12;48.06;100417.66;5098123;28;20070;-82
2021/04/21 09:18:06;;;;;;;15.13;11.05;;;;;;;16.13;48.59;100416.69;5100075;28;20547;-83
2021/04/21 09:20:32;;;;;;;16.65;12.85;;;;;;;16.21;48.71;100418.84;5104426;28;20051;-82
2021/04/21 09:23:03;;;;;;;17.73;13.25;;;;;;;16.19;48.56;100418.94;5096981;28;20040;-82
2021/04/21 09:25:39;;;;;;;14.38;11.48;;;;;;;16.25;49.22;100420.31;5102027;28;20048;-83
2021/04/21 09:28:09;;;;;;;14.30;12.25;;;;;;;16.30;48.92;100413.69;5082946;28;20028;-82
2021/04/21 09:30:40;;;;;;;15.43;13.02;;;;;;;16.40;49.45;100413.91;5111608;28;20048;-82
2021/04/21 09:33:07;;;;;;;18.50;14.00;;;;;;;16.41;48.88;100400.44;5109444;28;20044;-80
2021/04/21 09:35:42;;;;;;;17.85;13.32;;;;;;;16.42;49.31;100406.63;5103478;28;20044;-84
2021/04/21 09:38:24;;;;;;;14.52;12.40;;;;;;;16.39;49.67;100406.84;5110210;28;20075;-84
2021/04/21 09:40:57;;;;;;;21.85;15.23;;;;;;;16.28;49.17;100391.56;5103739;28;20086;-84
2021/04/21 09:43:29;;;;;;;21.13;15.10;;;;;;;16.31;49.88;100404.72;5096682;28;20056;-82
2021/04/21 09:46:01;;;;;;;20.77;15.88;;;;;;;16.31;49.95;100409.22;5094613;28;20115;-83
2021/04/21 09:48:32;;;;;;;18.80;14.75;;;;;;;16.40;49.77;100406.72;5097982;28;20055;-83
2021/04/21 09:51:04;;;;;;;18.60;14.52;;;;;;;16.62;49.27;100389.16;5098314;28;20044;-82
2021/04/21 09:53:38;;;;;;;19.00;14.93;;;;;;;16.84;47.69;100392.88;5087287;28;20048;-82
2021/04/21 09:56:10;;;;;;;19.98;15.52;;;;;;;17.07;47.77;100393.00;5097460;28;20068;-82
2021/04/21 09:58:38;;;;;;;22.40;15.65;;;;;;;17.25;47.19;100396.16;5108722;28;20103;-82
2021/04/21 10:01:25;;;;;;;18.23;16.15;;;;;;;17.37;46.70;100401.44;5100540;28;20060;-86
2021/04/21 10:04:21;;;;;;;19.70;15.90;;;;;;;17.53;45.95;100401.13;5103004;28;20040;-83
2021/04/21 10:06:56;;;;;;;19.58;16.25;;;;;;;17.70;45.10;100391.84;5103394;28;20426;-82
2021/04/21 10:09:32;;;;;;;23.25;17.20;;;;;;;17.71;45.44;100385.53;5088420;28;20159;-83
2021/04/21 10:12:19;;;;;;;22.45;16.38;;;;;;;17.81;45.54;100384.69;5107633;28;20032;-82
2021/04/21 10:15:10;;;;;;;23.38;17.67;;;;;;;17.95;45.80;100386.28;5104315;28;20050;-82
2021/04/21 10:17:41;;;;;;;20.83;17.02;;;;;;;18.07;46.13;100381.84;5094946;28;20052;-83
2021/04/21 10:20:11;;;;;;;23.05;17.88;;;;;;;18.13;45.53;100357.22;5109492;28;20036;-80
2021/04/21 10:22:41;;;;;;;23.98;18.67;;;;;;;18.49;45.04;100381.09;5112483;28;20063;-82
2021/04/21 10:25:11;;;;;;;24.35;18.75;;;;;;;18.58;43.77;100374.13;5103018;28;20077;-82
2021/04/21 10:27:40;;;;;;;22.65;18.75;;;;;;;18.73;42.80;100383.66;5094304;28;20046;-81
2021/04/21 10:30:11;;;;;;;24.00;18.52;;;;;;;18.94;42.14;100381.06;5088470;28;20099;-83
2021/04/21 10:32:39;;;;;;;24.40;19.85;;;;;;;19.02;41.64;100370.56;5093461;28;20057;-83
2021/04/21 10:35:07;;;;;;;24.55;19.40;;;;;;;19.23;41.47;100368.78;5105614;28;20128;-82
2021/04/21 10:37:36;;;;;;;27.00;20.10;;;;;;;19.24;41.31;100359.75;5100291;28;20071;-83
2021/04/21 10:40:05;;;;;;;26.08;19.17;;;;;;;19.41;41.04;100362.84;5117648;28;20073;-83
2021/04/21 10:42:52;;;;;;;23.77;18.35;;;;;;;19.34;41.38;100359.00;5115109;28;20075;-82
2021/04/21 10:45:25;;;;;;;23.00;17.85;;;;;;;19.42;41.73;100367.25;5085327;28;20404;-80
2021/04/21 10:47:53;;;;;;;25.63;18.75;;;;;;;19.39;40.89;100354.91;5106691;28;20067;-82
2021/04/21 10:50:42;;;;;;;20.58;17.77;;;;;;;19.15;41.32;100344.41;5106751;28;20044;-82
2021/04/21 10:53:27;;;;;;;21.70;18.42;;;;;;;19.16;41.40;100367.59;5090228;28;20044;-83
2021/04/21 10:55:54;;;;;;;23.58;18.35;;;;;;;19.10;41.14;100365.41;5108597;28;20087;-83
2021/04/21 10:58:20;;;;;;;22.95;18.00;;;;;;;19.06;41.64;100355.91;5103210;28;20051;-82
2021/04/21 11:00:50;;;;;;;24.33;19.50;;;;;;;19.32;41.02;100356.44;5104744;28;20040;-82
2021/04/21 11:03:20;;;;;;;22.52;17.92;;;;;;;19.45;40.81;100353.56;5086363;28;20068;-80
2021/04/21 11:06:01;;;;;;;20.45;16.45;;;;;;;19.36;41.22;100355.16;5100559;28;20055;-80
2021/04/21 11:08:30;;;;;;;21.90;17.58;;;;;;;19.30;40.98;100347.66;5113233;28;20024;-82
2021/04/21 11:11:05;;;;;;;25.15;17.85;;;;;;;19.24;40.48;100357.06;5106773;28;20036;-80
2021/04/21 11:13:42;;;;;;;25.13;17.73;;;;;;;19.28;40.08;100361.19;5091024;28;20059;-83
2021/04/21 11:16:14;;;;;;;24.02;18.33;;;;;;;19.36;39.50;100351.66;5110731;28;20048;-84
2021/04/21 11:18:44;;;;;;;21.63;17.45;;;;;;;19.41;40.76;100342.22;5104265;28;20078;-83
2021/04/21 11:21:15;;;;;;;21.17;16.75;;;;;;;19.35;39.32;100336.53;5105913;28;20047;-82
2021/04/21 11:24:09;;;;;;;20.40;15.97;;;;;;;19.35;39.85;100347.28;5109155;28;20032;-82
2021/04/21 11:26:44;;;;;;;16.20;13.15;;;;;;;19.45;38.91;100342.81;5091178;28;20482;-83
2021/04/21 11:29:14;;;;;;;11.50;9.55;;;;;;;19.60;34.14;100331.66;5090384;28;20175;-83
2021/04/21 11:31:45;;;;;;;8.02;6.70;;;;;;;19.58;33.78;100328.25;5111802;28;20024;-82
2021/04/21 11:34:28;;;;;;;5.80;4.53;;;;;;;19.68;31.25;100327.44;5114265;28;20066;-82
2021/04/21 11:37:07;;;;;;;4.65;3.97;;;;;;;19.74;29.94;100317.03;5114000;28;20171;-81
2021/04/21 11:39:47;;;;;;;5.43;4.20;;;;;;;19.89;30.45;100326.44;5086528;28;20051;-82
2021/04/21 11:42:23;;;;;;;;;;;;;;;20.00;30.81;100320.13;5096006;28;20058;-82
2021/04/21 11:45:16;;;;;;;7.72;6.18;;;;;;;20.00;31.53;100319.28;5106243;28;19960;-82
2021/04/21 11:48:13;;;;;;;8.93;6.75;;;;;;;19.85;32.23;100313.41;5112082;28;20048;-82
2021/04/21 11:50:42;;;;;;;9.10;7.35;;;;;;;19.64;31.97;100318.81;5109324;28;20047;-82